Terminal Aerodrome Forecast
Issued by NWS

Home | Current Version | Previous Version | Graphics & Text | Print | Product List | Glossary On
Versions: 1 2 3 4 5 6 7 8 9 10 11 12 13 14 15 16 17 18 19 20 21 22
000
FTUS43 KGRB 231500 AAB
TAFATW
TAF AMD
KATW 231529Z 2315/2412 07007KT 1/4SM FG VV003
      TEMPO 2316/2318 1 1/2SM -DZ BR SCT003 OVC006
     FM231800 17004KT 3SM BR OVC009
     FM240300 20004KT 5SM -DZ BR OVC007
     FM240900 29003KT 5SM BR OVC008=

USA.gov is the U.S. government's official web portal to all federal, state and local government web resources and services.